createdAt,value
2023-01-20T00:01:06.055Z,8.60
2023-01-20T00:03:35.308Z,11.30
2023-01-20T00:06:03.338Z,9.80
2023-01-20T00:08:31.288Z,9.07
2023-01-20T00:10:59.224Z,13.65
2023-01-20T00:13:27.086Z,11.05
2023-01-20T00:15:54.822Z,10.95
2023-01-20T00:18:22.736Z,13.40
2023-01-20T00:20:51.818Z,16.60
2023-01-20T00:23:19.714Z,14.05
2023-01-20T00:25:47.430Z,15.98
2023-01-20T00:28:15.256Z,15.55
2023-01-20T00:30:43.045Z,12.57
2023-01-20T00:33:10.830Z,16.73
2023-01-20T00:35:38.601Z,15.10
2023-01-20T00:38:07.820Z,19.35
2023-01-20T00:40:35.619Z,17.17
2023-01-20T00:43:03.401Z,20.25
2023-01-20T00:45:31.296Z,25.50
2023-01-20T00:47:59.177Z,24.92
2023-01-20T00:50:26.943Z,25.15
2023-01-20T00:52:54.789Z,23.05
2023-01-20T00:55:23.891Z,22.92
2023-01-20T00:57:51.734Z,24.63
2023-01-20T01:00:20.053Z,23.27
2023-01-20T01:02:47.940Z,28.60
2023-01-20T01:05:15.735Z,26.45
2023-01-20T01:07:43.921Z,25.23
2023-01-20T01:10:12.151Z,29.35
2023-01-20T01:12:41.355Z,24.27
2023-01-20T01:15:10.028Z,28.40
2023-01-20T01:17:37.883Z,24.77
2023-01-20T01:20:06.502Z,28.45
2023-01-20T01:22:34.331Z,26.27
2023-01-20T01:25:02.130Z,32.00
2023-01-20T01:27:30.305Z,27.40
2023-01-20T01:29:59.355Z,26.88
2023-01-20T01:32:27.117Z,31.73
2023-01-20T01:34:54.861Z,28.27
2023-01-20T01:37:22.682Z,25.67
2023-01-20T01:39:50.553Z,24.95
2023-01-20T01:42:20.398Z,24.05
2023-01-20T01:45:20.326Z,22.80
2023-01-20T01:47:52.456Z,22.70
2023-01-20T01:50:22.200Z,25.48
2023-01-20T01:52:52.866Z,25.00
2023-01-20T01:55:22.376Z,21.55
2023-01-20T01:57:50.886Z,24.30
2023-01-20T02:00:20.609Z,22.70
2023-01-20T02:02:48.435Z,23.08
2023-01-20T02:05:17.714Z,25.35
2023-01-20T02:07:48.009Z,27.10
2023-01-20T02:10:16.222Z,24.75
2023-01-20T02:12:47.244Z,27.10
2023-01-20T02:15:15.821Z,30.10
2023-01-20T02:17:54.610Z,29.73
2023-01-20T02:20:52.153Z,30.08
2023-01-20T02:23:33.146Z,27.77
2023-01-20T02:26:17.239Z,34.83
2023-01-20T02:28:55.127Z,36.20
2023-01-20T02:31:52.398Z,36.05
2023-01-20T02:34:26.117Z,39.30
2023-01-20T02:36:57.827Z,38.38
2023-01-20T02:39:29.181Z,41.53
2023-01-20T02:42:01.090Z,38.67
2023-01-20T02:44:33.367Z,41.17
2023-01-20T02:47:05.059Z,43.53
2023-01-20T02:49:36.405Z,44.45
2023-01-20T02:52:07.910Z,43.58
2023-01-20T02:54:37.669Z,43.33
2023-01-20T02:57:07.826Z,47.83
2023-01-20T02:59:38.748Z,45.85
2023-01-20T03:02:10.148Z,46.90
2023-01-20T03:04:42.086Z,44.35
2023-01-20T03:07:10.845Z,48.25
2023-01-20T03:09:40.226Z,45.65
2023-01-20T03:12:12.190Z,45.25
2023-01-20T03:14:40.085Z,45.97
2023-01-20T03:17:07.842Z,53.80
2023-01-20T03:19:36.424Z,50.90
2023-01-20T03:22:05.475Z,47.75
2023-01-20T03:24:34.667Z,56.85
2023-01-20T03:27:02.513Z,53.45
2023-01-20T03:29:30.676Z,58.47
2023-01-20T03:32:00.746Z,59.50
2023-01-20T03:34:31.309Z,59.38
2023-01-20T03:36:59.535Z,50.53
2023-01-20T03:39:28.997Z,65.00
2023-01-20T03:42:05.992Z,57.75
2023-01-20T03:44:47.791Z,55.00
2023-01-20T03:47:19.125Z,55.35
2023-01-20T03:49:52.852Z,61.05
2023-01-20T03:52:47.655Z,54.85
2023-01-20T03:55:18.253Z,63.80
2023-01-20T03:57:50.629Z,62.58
2023-01-20T04:00:21.463Z,66.00
2023-01-20T04:02:50.390Z,70.45
2023-01-20T04:05:18.354Z,69.10
2023-01-20T04:07:47.006Z,74.82
2023-01-20T04:10:17.074Z,73.63
2023-01-20T04:12:45.074Z,78.18
2023-01-20T04:15:13.365Z,68.57
2023-01-20T04:17:41.552Z,77.78
2023-01-20T04:20:12.376Z,66.47
2023-01-20T04:22:45.459Z,70.10
2023-01-20T04:25:18.889Z,72.17
2023-01-20T04:27:46.704Z,76.47
2023-01-20T04:30:15.373Z,84.07
2023-01-20T04:32:43.233Z,71.90
2023-01-20T04:35:12.938Z,77.88
2023-01-20T04:37:40.914Z,72.63
2023-01-20T04:40:10.120Z,78.55
2023-01-20T04:42:39.258Z,69.43
2023-01-20T04:45:07.810Z,68.03
2023-01-20T04:47:35.622Z,72.18
2023-01-20T04:50:03.422Z,65.60
2023-01-20T04:52:31.096Z,68.90
2023-01-20T04:54:59.149Z,61.53
2023-01-20T04:57:26.950Z,60.65
2023-01-20T04:59:56.254Z,67.18
2023-01-20T05:02:23.972Z,66.90
2023-01-20T05:04:51.859Z,60.47
2023-01-20T05:07:19.627Z,62.58
2023-01-20T05:09:47.485Z,60.55
2023-01-20T05:12:15.212Z,64.00
2023-01-20T05:14:43.063Z,64.32
2023-01-20T05:17:12.139Z,61.60
2023-01-20T05:19:40.914Z,64.70
2023-01-20T05:22:08.831Z,61.28
2023-01-20T05:24:36.586Z,63.88
2023-01-20T05:27:04.526Z,62.78
2023-01-20T05:29:32.466Z,60.40
2023-01-20T05:32:00.199Z,60.90
2023-01-20T05:34:29.414Z,68.20
2023-01-20T05:36:57.310Z,60.88
2023-01-20T05:39:25.148Z,61.80
2023-01-20T05:41:52.860Z,66.95
2023-01-20T05:44:20.762Z,67.43
2023-01-20T05:47:09.950Z,68.10
2023-01-20T05:49:39.078Z,70.38
2023-01-20T05:52:06.823Z,72.80
2023-01-20T05:54:34.624Z,71.13
2023-01-20T05:57:04.247Z,66.85
2023-01-20T05:59:32.386Z,69.68
2023-01-20T06:02:00.248Z,69.55
2023-01-20T06:04:28.132Z,76.60
2023-01-20T06:06:57.229Z,72.40
2023-01-20T06:09:25.239Z,64.40
2023-01-20T06:11:52.913Z,76.18
2023-01-20T06:14:20.707Z,72.68
2023-01-20T06:16:48.587Z,78.55
2023-01-20T06:19:16.467Z,71.72
2023-01-20T06:21:46.757Z,80.35
2023-01-20T06:24:16.389Z,75.18
2023-01-20T06:26:44.302Z,70.90
2023-01-20T06:29:11.961Z,72.72
2023-01-20T06:31:39.880Z,67.90
2023-01-20T06:34:07.643Z,74.82
2023-01-20T06:36:35.519Z,69.25
2023-01-20T06:39:03.520Z,80.07
2023-01-20T06:41:32.806Z,76.53
2023-01-20T06:44:00.703Z,63.38
2023-01-20T06:46:28.649Z,75.93
2023-01-20T06:49:00.600Z,69.43
2023-01-20T06:51:30.230Z,68.60
2023-01-20T06:53:58.493Z,64.43
2023-01-20T06:56:26.331Z,74.93
2023-01-20T06:58:55.809Z,69.63
2023-01-20T07:01:25.012Z,71.53
2023-01-20T07:03:53.162Z,65.70
2023-01-20T07:06:25.922Z,61.55
2023-01-20T07:08:53.823Z,72.93
2023-01-20T07:11:21.905Z,67.00
2023-01-20T07:13:49.715Z,74.97
2023-01-20T07:16:19.047Z,62.78
2023-01-20T07:18:49.647Z,66.25
2023-01-20T07:21:18.061Z,61.88
2023-01-20T07:23:46.444Z,73.32
2023-01-20T07:26:16.401Z,62.33
2023-01-20T07:28:44.337Z,69.85
2023-01-20T07:31:14.082Z,66.07
2023-01-20T07:33:43.562Z,66.05
2023-01-20T07:36:12.836Z,62.40
2023-01-20T07:38:41.062Z,66.50
2023-01-20T07:41:16.138Z,61.28
2023-01-20T07:43:44.599Z,62.90
2023-01-20T07:46:12.681Z,69.32
2023-01-20T07:48:40.639Z,63.47
2023-01-20T07:51:11.140Z,68.15
2023-01-20T07:53:40.297Z,61.58
2023-01-20T07:56:11.430Z,61.80
2023-01-20T07:58:39.898Z,63.72
2023-01-20T08:01:09.160Z,67.25
2023-01-20T08:03:37.258Z,63.03
2023-01-20T08:06:05.625Z,58.65
2023-01-20T08:08:35.260Z,63.00
2023-01-20T08:11:04.087Z,58.83
2023-01-20T08:13:32.706Z,59.58
2023-01-20T08:16:01.679Z,58.08
2023-01-20T08:18:29.579Z,55.38
2023-01-20T08:20:57.506Z,64.22
2023-01-20T08:23:25.628Z,72.00
2023-01-20T08:26:00.060Z,64.80
2023-01-20T08:28:28.479Z,68.75
2023-01-20T08:30:56.620Z,65.88
2023-01-20T08:33:24.722Z,60.38
2023-01-20T08:35:52.563Z,64.55
2023-01-20T08:38:20.324Z,64.85
2023-01-20T08:40:48.215Z,65.28
2023-01-20T08:43:17.343Z,66.82
2023-01-20T08:45:45.065Z,59.88
2023-01-20T08:48:12.907Z,64.15
2023-01-20T08:50:40.892Z,71.45
2023-01-20T08:53:09.765Z,64.30
2023-01-20T08:55:37.881Z,64.50
2023-01-20T08:58:05.605Z,59.20
2023-01-20T09:00:34.833Z,59.50
2023-01-20T09:03:02.685Z,60.70
2023-01-20T09:05:30.449Z,64.10
2023-01-20T09:07:58.179Z,70.90
2023-01-20T09:10:26.102Z,66.43
2023-01-20T09:12:53.916Z,55.40
2023-01-20T09:15:25.411Z,68.75
2023-01-20T09:17:54.894Z,63.63
2023-01-20T09:20:22.841Z,64.53
2023-01-20T09:22:50.755Z,57.70
2023-01-20T09:25:18.766Z,65.88
2023-01-20T09:27:46.582Z,57.58
2023-01-20T09:30:15.038Z,65.28
2023-01-20T09:32:42.787Z,65.30
2023-01-20T09:35:12.310Z,65.13
2023-01-20T09:37:57.926Z,59.78
2023-01-20T09:41:02.915Z,64.60
2023-01-20T09:46:25.520Z,59.10
2023-01-20T09:49:15.656Z,62.92
2023-01-20T09:52:08.753Z,63.30
2023-01-20T09:54:41.761Z,62.45
2023-01-20T09:57:10.103Z,58.83
2023-01-20T09:59:39.896Z,64.82
2023-01-20T10:02:12.789Z,58.10
2023-01-20T10:04:44.015Z,61.83
2023-01-20T10:07:18.988Z,57.35
2023-01-20T10:09:51.285Z,65.55
2023-01-20T10:12:21.878Z,58.58
2023-01-20T10:14:55.281Z,70.30
2023-01-20T10:17:25.046Z,61.45
2023-01-20T10:19:56.460Z,68.20
2023-01-20T10:22:31.366Z,52.28
2023-01-20T10:25:02.743Z,89.35
2023-01-20T10:27:31.141Z,77.82
2023-01-20T10:30:05.934Z,62.75
2023-01-20T10:32:36.625Z,55.42
2023-01-20T10:35:10.341Z,58.25
2023-01-20T10:37:40.118Z,59.50
2023-01-20T10:40:18.724Z,53.13
2023-01-20T10:42:49.304Z,54.72
2023-01-20T10:45:21.232Z,55.92
2023-01-20T10:47:55.433Z,51.85
2023-01-20T10:50:40.199Z,49.63
2023-01-20T10:53:30.337Z,51.13
2023-01-20T10:56:09.185Z,47.80
2023-01-20T10:58:37.891Z,52.17
2023-01-20T11:01:08.947Z,107.05
2023-01-20T11:03:40.924Z,64.75
2023-01-20T11:06:10.361Z,52.85
2023-01-20T11:08:39.674Z,46.80
2023-01-20T11:11:12.454Z,48.63
2023-01-20T11:13:40.321Z,51.78
2023-01-20T11:16:13.664Z,50.17
2023-01-20T11:18:41.516Z,58.13
2023-01-20T11:21:11.134Z,50.05
2023-01-20T11:23:42.395Z,40.53
2023-01-20T11:26:19.610Z,42.30
2023-01-20T11:28:50.932Z,40.45
2023-01-20T11:31:19.316Z,45.88
2023-01-20T11:33:58.810Z,37.42
2023-01-20T11:36:27.543Z,41.75
2023-01-20T11:38:58.048Z,43.10
2023-01-20T11:41:27.492Z,41.70
2023-01-20T11:43:56.612Z,40.58
2023-01-20T11:46:30.213Z,37.58
2023-01-20T11:49:14.512Z,36.30
2023-01-20T11:54:18.132Z,38.33
2023-01-20T11:56:47.483Z,37.00
2023-01-20T11:59:22.342Z,38.22
2023-01-20T12:01:57.449Z,39.28
2023-01-20T12:04:38.991Z,40.97
2023-01-20T12:07:10.511Z,37.15
2023-01-20T12:09:42.148Z,36.72
2023-01-20T12:12:15.793Z,37.25
2023-01-20T12:14:48.083Z,35.17
2023-01-20T12:17:23.345Z,34.53
2023-01-20T12:20:02.539Z,34.80
2023-01-20T12:22:38.407Z,35.05
2023-01-20T12:25:16.596Z,35.47
2023-01-20T12:27:51.434Z,34.25
2023-01-20T12:30:44.426Z,31.73
2023-01-20T12:33:18.609Z,30.55
2023-01-20T12:36:06.254Z,28.60
2023-01-20T12:38:37.814Z,31.83
2023-01-20T12:41:09.087Z,41.15
2023-01-20T12:43:52.942Z,32.75
2023-01-20T12:46:39.516Z,26.60
2023-01-20T12:49:20.048Z,26.83
2023-01-20T12:51:57.528Z,29.88
2023-01-20T12:54:51.328Z,27.70
2023-01-20T12:57:31.300Z,26.83
2023-01-20T13:00:12.271Z,29.20
2023-01-20T13:02:53.758Z,30.27
2023-01-20T13:05:51.198Z,31.23
2023-01-20T13:08:23.244Z,32.00
2023-01-20T13:11:05.716Z,28.83
2023-01-20T13:13:56.049Z,28.02
2023-01-20T13:16:32.836Z,30.13
2023-01-20T13:19:08.051Z,30.00
2023-01-20T13:21:35.969Z,31.83
2023-01-20T13:24:06.213Z,29.63
2023-01-20T13:26:34.257Z,27.83
2023-01-20T13:29:03.487Z,27.25
2023-01-20T13:31:44.929Z,30.30
2023-01-20T13:34:33.131Z,23.98
2023-01-20T13:37:23.832Z,24.92
2023-01-20T13:39:54.549Z,24.00
2023-01-20T13:42:30.518Z,24.90
2023-01-20T13:45:27.797Z,26.15
2023-01-20T13:48:01.434Z,23.33
2023-01-20T13:50:32.487Z,24.70
2023-01-20T13:53:15.062Z,25.35
2023-01-20T13:55:57.096Z,32.63
2023-01-20T13:58:26.311Z,29.17
2023-01-20T14:00:57.115Z,24.55
2023-01-20T14:03:29.219Z,23.42
2023-01-20T14:05:59.043Z,26.27
2023-01-20T14:08:29.145Z,23.40
2023-01-20T14:11:13.302Z,27.02
2023-01-20T14:13:41.878Z,27.15
2023-01-20T14:16:21.120Z,26.02
2023-01-20T14:18:49.859Z,23.05
2023-01-20T14:21:21.576Z,25.27
2023-01-20T14:23:50.183Z,23.50
2023-01-20T14:26:22.981Z,23.30
2023-01-20T14:28:51.939Z,23.42
2023-01-20T14:31:24.349Z,24.60
2023-01-20T14:33:55.384Z,29.77
2023-01-20T14:36:24.478Z,24.60
2023-01-20T14:38:58.353Z,26.02
2023-01-20T14:41:28.674Z,21.15
2023-01-20T14:43:56.682Z,23.13
2023-01-20T14:46:26.603Z,23.70
2023-01-20T14:48:55.285Z,23.42
2023-01-20T14:51:23.785Z,23.48
2023-01-20T14:54:31.023Z,23.10
2023-01-20T14:56:59.753Z,22.52
2023-01-20T14:59:27.816Z,21.60
2023-01-20T15:02:00.532Z,20.40
2023-01-20T15:04:36.019Z,22.48
2023-01-20T15:07:03.930Z,25.52
2023-01-20T15:09:33.249Z,25.48
2023-01-20T15:12:32.650Z,22.13
2023-01-20T15:15:24.328Z,23.30
2023-01-20T15:18:18.234Z,27.42
2023-01-20T15:20:48.467Z,22.27
2023-01-20T15:23:20.039Z,21.38
2023-01-20T15:25:48.066Z,22.00
2023-01-20T15:28:25.021Z,22.92
2023-01-20T15:30:53.956Z,25.13
2023-01-20T15:33:24.025Z,23.27
2023-01-20T15:35:53.836Z,22.15
2023-01-20T15:38:21.756Z,26.30
2023-01-20T15:40:49.757Z,28.50
2023-01-20T15:43:18.026Z,28.55
2023-01-20T15:45:46.026Z,25.75
2023-01-20T15:48:18.686Z,30.20
2023-01-20T15:50:48.633Z,57.38
2023-01-20T15:53:16.987Z,29.55
2023-01-20T15:55:49.523Z,27.17
2023-01-20T15:58:26.354Z,23.52
2023-01-20T16:00:55.146Z,24.55
2023-01-20T16:03:23.013Z,18.90
2023-01-20T16:05:53.548Z,18.48
2023-01-20T16:08:22.838Z,16.75
2023-01-20T16:10:50.678Z,17.20
2023-01-20T16:13:18.495Z,16.17
2023-01-20T16:15:46.432Z,15.70
2023-01-20T16:18:15.679Z,19.10
2023-01-20T16:20:45.060Z,16.15
2023-01-20T16:23:14.633Z,18.83
2023-01-20T16:25:42.745Z,18.83
2023-01-20T16:28:14.609Z,21.25
2023-01-20T16:30:42.782Z,20.70
2023-01-20T16:33:18.034Z,22.77
2023-01-20T16:35:45.884Z,18.83
2023-01-20T16:38:17.217Z,24.15
2023-01-20T16:40:48.439Z,21.80
2023-01-20T16:43:17.591Z,20.45
2023-01-20T16:45:49.811Z,26.73
2023-01-20T16:48:17.733Z,21.05
2023-01-20T16:50:45.591Z,19.58
2023-01-20T16:53:15.279Z,20.75
2023-01-20T16:55:44.841Z,24.88
2023-01-20T16:58:12.812Z,34.58
2023-01-20T17:00:41.022Z,26.20
2023-01-20T17:03:09.029Z,29.77
2023-01-20T17:05:36.989Z,26.52
2023-01-20T17:08:06.508Z,38.63
2023-01-20T17:10:35.837Z,30.88
2023-01-20T17:13:03.605Z,28.85
2023-01-20T17:15:31.504Z,33.88
2023-01-20T17:18:00.364Z,39.30
2023-01-20T17:20:30.927Z,36.50
2023-01-20T17:22:58.780Z,34.22
2023-01-20T17:25:26.628Z,36.38
2023-01-20T17:27:55.975Z,33.30
2023-01-20T17:30:26.209Z,35.75
2023-01-20T17:32:54.383Z,36.60
2023-01-20T17:35:22.255Z,37.70
2023-01-20T17:37:50.178Z,38.65
2023-01-20T17:40:18.935Z,42.50
2023-01-20T17:42:46.770Z,45.78
2023-01-20T17:45:16.144Z,44.70
2023-01-20T17:47:43.989Z,44.80
2023-01-20T17:50:12.244Z,44.20
2023-01-20T17:52:40.316Z,43.13
2023-01-20T17:55:09.002Z,47.75
2023-01-20T17:57:36.761Z,53.40
2023-01-20T18:00:06.399Z,50.70
2023-01-20T18:02:35.997Z,49.38
2023-01-20T18:05:04.236Z,50.88
2023-01-20T18:07:32.034Z,50.22
2023-01-20T18:09:59.951Z,51.85
2023-01-20T18:12:27.777Z,55.83
2023-01-20T18:14:55.562Z,55.58
2023-01-20T18:17:23.346Z,51.38
2023-01-20T18:19:52.568Z,50.92
2023-01-20T18:22:20.337Z,53.75
2023-01-20T18:24:48.096Z,55.58
2023-01-20T18:27:18.715Z,54.92
2023-01-20T18:29:50.294Z,52.97
2023-01-20T18:32:18.152Z,54.72
2023-01-20T18:34:46.026Z,50.67
2023-01-20T18:37:15.175Z,56.78
2023-01-20T18:39:43.946Z,52.30
2023-01-20T18:42:12.075Z,60.15
2023-01-20T18:44:39.873Z,54.40
2023-01-20T18:47:07.638Z,60.92
2023-01-20T18:49:35.525Z,54.28
2023-01-20T18:52:03.276Z,53.83
2023-01-20T18:54:34.307Z,58.67
2023-01-20T18:57:03.308Z,59.05
2023-01-20T18:59:31.072Z,55.50
2023-01-20T19:01:59.500Z,69.40
2023-01-20T19:04:27.385Z,60.05
2023-01-20T19:06:55.206Z,52.75
2023-01-20T19:09:23.059Z,53.53
2023-01-20T19:11:52.207Z,58.67
2023-01-20T19:14:20.161Z,54.72
2023-01-20T19:16:49.378Z,60.10
2023-01-20T19:19:19.072Z,61.75
2023-01-20T19:21:47.093Z,59.88
2023-01-20T19:24:18.782Z,60.70
2023-01-20T19:26:46.964Z,64.20
2023-01-20T19:29:17.593Z,55.92
2023-01-20T19:31:46.519Z,65.47
2023-01-20T19:34:14.314Z,52.83
2023-01-20T19:36:42.200Z,66.80
2023-01-20T19:39:09.994Z,65.18
2023-01-20T19:41:38.956Z,64.55
2023-01-20T19:44:07.854Z,65.30
2023-01-20T19:46:39.542Z,70.32
2023-01-20T19:49:07.730Z,70.03
2023-01-20T19:51:36.393Z,62.47
2023-01-20T19:54:05.056Z,61.58
2023-01-20T19:56:34.878Z,58.70
2023-01-20T19:59:03.049Z,60.15
2023-01-20T20:01:32.002Z,57.50
2023-01-20T20:04:06.539Z,59.50
2023-01-20T20:06:36.286Z,56.83
2023-01-20T20:09:05.476Z,57.05
2023-01-20T20:11:33.869Z,63.38
2023-01-20T20:14:03.839Z,64.28
2023-01-20T20:16:33.426Z,56.67
2023-01-20T20:19:02.704Z,66.85
2023-01-20T20:21:30.628Z,60.35
2023-01-20T20:24:00.182Z,59.28
2023-01-20T20:26:29.815Z,59.60
2023-01-20T20:28:59.098Z,57.13
2023-01-20T20:31:29.290Z,67.10
2023-01-20T20:33:57.967Z,63.10
2023-01-20T20:36:29.655Z,60.78
2023-01-20T20:38:58.756Z,56.38
2023-01-20T20:41:28.845Z,69.40
2023-01-20T20:43:56.898Z,64.38
2023-01-20T20:46:24.827Z,62.25
2023-01-20T20:48:54.581Z,61.63
2023-01-20T20:51:23.775Z,60.35
2023-01-20T20:53:54.317Z,60.70
2023-01-20T20:56:22.114Z,62.90
2023-01-20T20:59:00.934Z,62.45
2023-01-20T21:01:30.576Z,65.75
2023-01-20T21:04:00.480Z,60.63
2023-01-20T21:06:28.926Z,66.85
2023-01-20T21:08:58.734Z,62.10
2023-01-20T21:11:26.779Z,63.33
2023-01-20T21:13:55.080Z,63.35
2023-01-20T21:16:24.180Z,65.18
2023-01-20T21:18:53.197Z,60.50
2023-01-20T21:21:21.667Z,56.50
2023-01-20T21:23:50.739Z,55.17
2023-01-20T21:26:20.255Z,58.97
2023-01-20T21:28:49.286Z,56.13
2023-01-20T21:31:20.978Z,69.13
2023-01-20T21:33:53.743Z,65.72
2023-01-20T21:36:22.175Z,66.68
2023-01-20T21:38:50.313Z,63.38
2023-01-20T21:41:20.094Z,75.40
2023-01-20T21:44:06.211Z,71.00
2023-01-20T21:46:38.381Z,72.63
2023-01-20T21:49:24.815Z,71.97
2023-01-20T21:52:10.267Z,68.55
2023-01-20T21:54:39.789Z,72.82
2023-01-20T21:57:08.937Z,74.95
2023-01-20T21:59:37.004Z,73.03
2023-01-20T22:02:05.057Z,71.25
2023-01-20T22:04:33.228Z,60.38
2023-01-20T22:07:01.424Z,62.28
2023-01-20T22:09:29.125Z,58.67
2023-01-20T22:11:56.915Z,60.38
2023-01-20T22:14:26.044Z,65.70
2023-01-20T22:16:53.993Z,58.90
2023-01-20T22:19:22.090Z,61.50
2023-01-20T22:21:49.785Z,62.10
2023-01-20T22:24:18.456Z,62.47
2023-01-20T22:26:47.331Z,51.58
2023-01-20T22:29:15.209Z,59.10
2023-01-20T22:31:44.681Z,59.88
2023-01-20T22:34:12.772Z,59.70
2023-01-20T22:36:40.685Z,49.95
2023-01-20T22:39:08.754Z,59.83
2023-01-20T22:41:36.498Z,56.60
2023-01-20T22:44:04.516Z,65.55
2023-01-20T22:46:32.483Z,58.80
2023-01-20T22:49:01.842Z,63.67
2023-01-20T22:51:30.652Z,61.42
2023-01-20T22:53:59.527Z,65.68
2023-01-20T22:56:29.191Z,62.10
2023-01-20T22:58:57.435Z,59.35
2023-01-20T23:01:26.946Z,60.58
2023-01-20T23:03:55.261Z,66.28
2023-01-20T23:06:25.249Z,60.50
2023-01-20T23:08:53.119Z,63.45
2023-01-20T23:11:22.222Z,66.00
2023-01-20T23:13:50.797Z,68.25
2023-01-20T23:16:21.426Z,63.58
2023-01-20T23:18:49.838Z,60.83
2023-01-20T23:21:17.785Z,62.05
2023-01-20T23:23:46.872Z,67.30
2023-01-20T23:26:19.273Z,62.47
2023-01-20T23:28:47.686Z,62.67
2023-01-20T23:31:16.642Z,58.55
2023-01-20T23:33:45.099Z,64.75
2023-01-20T23:36:14.635Z,57.75
2023-01-20T23:38:42.649Z,59.28
2023-01-20T23:41:12.191Z,62.50
2023-01-20T23:43:40.421Z,64.72
2023-01-20T23:46:08.822Z,61.30
2023-01-20T23:48:36.909Z,56.83
2023-01-20T23:51:06.373Z,60.70
2023-01-20T23:53:35.275Z,58.35
2023-01-20T23:56:03.870Z,62.08
2023-01-20T23:58:33.278Z,60.13
